sensor_id;sensor_type;location;lat;lon;timestamp;temperature;humidity
20102;DHT22;10210;52.284;9.892;2022-12-18T00:00:47;-0.80;99.90
20102;DHT22;10210;52.284;9.892;2022-12-18T00:03:14;-0.80;99.90
20102;DHT22;10210;52.284;9.892;2022-12-18T00:05:48;-0.80;99.90
20102;DHT22;10210;52.284;9.892;2022-12-18T00:08:15;-0.80;99.90
20102;DHT22;10210;52.284;9.892;2022-12-18T00:10:41;-0.80;99.90
20102;DHT22;10210;52.284;9.892;2022-12-18T00:13:07;-0.70;99.90
20102;DHT22;10210;52.284;9.892;2022-12-18T00:15:34;-0.70;99.90
20102;DHT22;10210;52.284;9.892;2022-12-18T00:18:01;-0.70;99.90
20102;DHT22;10210;52.284;9.892;2022-12-18T00:20:27;-0.70;99.90
20102;DHT22;10210;52.284;9.892;2022-12-18T00:22:53;-0.80;99.90
20102;DHT22;10210;52.284;9.892;2022-12-18T00:25:19;-0.70;99.90
20102;DHT22;10210;52.284;9.892;2022-12-18T00:27:45;-0.80;99.90
20102;DHT22;10210;52.284;9.892;2022-12-18T00:30:11;-0.80;99.90
20102;DHT22;10210;52.284;9.892;2022-12-18T00:32:37;-0.80;99.90
20102;DHT22;10210;52.284;9.892;2022-12-18T00:35:04;-0.80;99.90
20102;DHT22;10210;52.284;9.892;2022-12-18T00:37:32;-0.90;99.90
20102;DHT22;10210;52.284;9.892;2022-12-18T00:39:59;-0.90;99.90
20102;DHT22;10210;52.284;9.892;2022-12-18T00:42:24;-1.00;99.90
20102;DHT22;10210;52.284;9.892;2022-12-18T00:45:09;-1.00;99.90
20102;DHT22;10210;52.284;9.892;2022-12-18T00:47:34;-1.00;99.90
20102;DHT22;10210;52.284;9.892;2022-12-18T00:50:00;-1.10;99.90
20102;DHT22;10210;52.284;9.892;2022-12-18T00:52:26;-1.10;99.90
20102;DHT22;10210;52.284;9.892;2022-12-18T00:54:52;-1.20;99.90
20102;DHT22;10210;52.284;9.892;2022-12-18T00:57:17;-1.20;99.90
20102;DHT22;10210;52.284;9.892;2022-12-18T00:59:43;-1.20;99.90
20102;DHT22;10210;52.284;9.892;2022-12-18T01:02:09;-1.20;99.90
20102;DHT22;10210;52.284;9.892;2022-12-18T01:04:34;-1.30;99.90
20102;DHT22;10210;52.284;9.892;2022-12-18T01:07:00;-1.30;99.90
20102;DHT22;10210;52.284;9.892;2022-12-18T01:09:26;-1.40;99.90
20102;DHT22;10210;52.284;9.892;2022-12-18T01:11:52;-1.40;99.90
20102;DHT22;10210;52.284;9.892;2022-12-18T01:14:17;-1.40;99.90
20102;DHT22;10210;52.284;9.892;2022-12-18T01:16:43;-1.40;99.90
20102;DHT22;10210;52.284;9.892;2022-12-18T01:19:09;-1.50;99.90
20102;DHT22;10210;52.284;9.892;2022-12-18T01:21:35;-1.50;99.90
20102;DHT22;10210;52.284;9.892;2022-12-18T01:24:00;-1.60;99.90
20102;DHT22;10210;52.284;9.892;2022-12-18T01:26:26;-1.60;99.90
20102;DHT22;10210;52.284;9.892;2022-12-18T01:28:55;-1.60;99.90
20102;DHT22;10210;52.284;9.892;2022-12-18T01:31:27;-1.70;99.90
20102;DHT22;10210;52.284;9.892;2022-12-18T01:33:54;-1.70;99.90
20102;DHT22;10210;52.284;9.892;2022-12-18T01:36:23;-1.70;99.90
20102;DHT22;10210;52.284;9.892;2022-12-18T01:38:51;-1.70;99.90
20102;DHT22;10210;52.284;9.892;2022-12-18T01:41:22;-1.70;99.90
20102;DHT22;10210;52.284;9.892;2022-12-18T01:43:57;-1.70;99.90
20102;DHT22;10210;52.284;9.892;2022-12-18T01:46:24;-1.70;99.90
20102;DHT22;10210;52.284;9.892;2022-12-18T01:48:57;-1.80;99.90
20102;DHT22;10210;52.284;9.892;2022-12-18T01:51:27;-1.80;99.90
20102;DHT22;10210;52.284;9.892;2022-12-18T01:53:55;-1.90;99.90
20102;DHT22;10210;52.284;9.892;2022-12-18T01:56:22;-1.90;99.90
20102;DHT22;10210;52.284;9.892;2022-12-18T01:59:04;-1.90;99.90
20102;DHT22;10210;52.284;9.892;2022-12-18T02:01:34;-1.90;99.90
20102;DHT22;10210;52.284;9.892;2022-12-18T02:04:20;-1.80;99.90
20102;DHT22;10210;52.284;9.892;2022-12-18T02:09:51;-1.80;99.90
20102;DHT22;10210;52.284;9.892;2022-12-18T02:12:34;-1.80;99.90
20102;DHT22;10210;52.284;9.892;2022-12-18T02:15:56;-1.80;99.90
20102;DHT22;10210;52.284;9.892;2022-12-18T02:18:30;-1.70;99.90
20102;DHT22;10210;52.284;9.892;2022-12-18T02:23:56;-1.70;99.90
20102;DHT22;10210;52.284;9.892;2022-12-18T02:26:27;-1.70;99.90
20102;DHT22;10210;52.284;9.892;2022-12-18T02:29:04;-1.70;99.90
20102;DHT22;10210;52.284;9.892;2022-12-18T02:31:42;-1.70;99.90
20102;DHT22;10210;52.284;9.892;2022-12-18T02:34:13;-1.60;99.90
20102;DHT22;10210;52.284;9.892;2022-12-18T02:36:42;-1.60;99.90
20102;DHT22;10210;52.284;9.892;2022-12-18T02:39:12;-1.60;99.90
20102;DHT22;10210;52.284;9.892;2022-12-18T02:41:40;-1.60;99.90
20102;DHT22;10210;52.284;9.892;2022-12-18T02:44:09;-1.60;99.90
20102;DHT22;10210;52.284;9.892;2022-12-18T02:46:48;-1.50;99.90
20102;DHT22;10210;52.284;9.892;2022-12-18T02:49:36;-1.50;99.90
20102;DHT22;10210;52.284;9.892;2022-12-18T02:55:23;-1.50;99.90
20102;DHT22;10210;52.284;9.892;2022-12-18T02:58:09;-1.50;99.90
20102;DHT22;10210;52.284;9.892;2022-12-18T03:03:40;-1.50;99.90
20102;DHT22;10210;52.284;9.892;2022-12-18T03:06:26;-1.40;99.90
20102;DHT22;10210;52.284;9.892;2022-12-18T03:09:00;-1.40;99.90
20102;DHT22;10210;52.284;9.892;2022-12-18T03:11:33;-1.40;99.90
20102;DHT22;10210;52.284;9.892;2022-12-18T03:14:26;-1.50;99.90
20102;DHT22;10210;52.284;9.892;2022-12-18T03:16:59;-1.40;99.90
20102;DHT22;10210;52.284;9.892;2022-12-18T03:19:29;-1.40;99.90
20102;DHT22;10210;52.284;9.892;2022-12-18T03:21:59;-1.40;99.90
20102;DHT22;10210;52.284;9.892;2022-12-18T03:24:29;-1.50;99.90
20102;DHT22;10210;52.284;9.892;2022-12-18T03:27:13;-1.50;99.90
20102;DHT22;10210;52.284;9.892;2022-12-18T03:29:49;-1.50;99.90
20102;DHT22;10210;52.284;9.892;2022-12-18T03:32:29;-1.40;99.90
20102;DHT22;10210;52.284;9.892;2022-12-18T03:35:02;-1.40;99.90
20102;DHT22;10210;52.284;9.892;2022-12-18T03:37:30;-1.40;99.90
20102;DHT22;10210;52.284;9.892;2022-12-18T03:39:56;-1.40;99.90
20102;DHT22;10210;52.284;9.892;2022-12-18T03:42:49;-1.40;99.90
20102;DHT22;10210;52.284;9.892;2022-12-18T03:45:34;-1.40;99.90
20102;DHT22;10210;52.284;9.892;2022-12-18T03:48:18;-1.40;99.90
20102;DHT22;10210;52.284;9.892;2022-12-18T03:51:02;-1.40;99.90
20102;DHT22;10210;52.284;9.892;2022-12-18T03:53:53;-1.40;99.90
20102;DHT22;10210;52.284;9.892;2022-12-18T03:56:26;-1.30;99.90
20102;DHT22;10210;52.284;9.892;2022-12-18T03:58:57;-1.30;99.90
20102;DHT22;10210;52.284;9.892;2022-12-18T04:01:30;-1.30;99.90
20102;DHT22;10210;52.284;9.892;2022-12-18T04:04:02;-1.30;99.90
20102;DHT22;10210;52.284;9.892;2022-12-18T04:06:30;-1.30;99.90
20102;DHT22;10210;52.284;9.892;2022-12-18T04:08:58;-1.30;99.90
20102;DHT22;10210;52.284;9.892;2022-12-18T04:11:24;-1.30;99.90
20102;DHT22;10210;52.284;9.892;2022-12-18T04:13:49;-1.30;99.90
20102;DHT22;10210;52.284;9.892;2022-12-18T04:16:15;-1.30;99.90
20102;DHT22;10210;52.284;9.892;2022-12-18T04:18:41;-1.30;99.90
20102;DHT22;10210;52.284;9.892;2022-12-18T04:21:06;-1.30;99.90
20102;DHT22;10210;52.284;9.892;2022-12-18T04:23:32;-1.30;99.90
20102;DHT22;10210;52.284;9.892;2022-12-18T04:25:58;-1.20;99.90
20102;DHT22;10210;52.284;9.892;2022-12-18T04:28:23;-1.30;99.90
20102;DHT22;10210;52.284;9.892;2022-12-18T04:30:49;-1.30;99.90
20102;DHT22;10210;52.284;9.892;2022-12-18T04:33:15;-1.30;99.90
20102;DHT22;10210;52.284;9.892;2022-12-18T04:35:41;-1.30;99.90
20102;DHT22;10210;52.284;9.892;2022-12-18T04:38:07;-1.30;99.90
20102;DHT22;10210;52.284;9.892;2022-12-18T04:40:34;-1.30;99.90
20102;DHT22;10210;52.284;9.892;2022-12-18T04:43:00;-1.30;99.90
20102;DHT22;10210;52.284;9.892;2022-12-18T04:45:25;-1.30;99.90
20102;DHT22;10210;52.284;9.892;2022-12-18T04:47:51;-1.30;99.90
20102;DHT22;10210;52.284;9.892;2022-12-18T04:50:17;-1.40;99.90
20102;DHT22;10210;52.284;9.892;2022-12-18T04:52:43;-1.40;99.90
20102;DHT22;10210;52.284;9.892;2022-12-18T04:55:08;-1.30;99.90
20102;DHT22;10210;52.284;9.892;2022-12-18T04:57:34;-1.30;99.90
20102;DHT22;10210;52.284;9.892;2022-12-18T05:00:00;-1.40;99.90
20102;DHT22;10210;52.284;9.892;2022-12-18T05:02:26;-1.30;99.90
20102;DHT22;10210;52.284;9.892;2022-12-18T05:04:51;-1.30;99.90
20102;DHT22;10210;52.284;9.892;2022-12-18T05:07:18;-1.30;99.90
20102;DHT22;10210;52.284;9.892;2022-12-18T05:09:43;-1.40;99.90
20102;DHT22;10210;52.284;9.892;2022-12-18T05:12:09;-1.40;99.90
20102;DHT22;10210;52.284;9.892;2022-12-18T05:14:35;-1.40;99.90
20102;DHT22;10210;52.284;9.892;2022-12-18T05:17:00;-1.30;99.90
20102;DHT22;10210;52.284;9.892;2022-12-18T05:19:26;-1.40;99.90
20102;DHT22;10210;52.284;9.892;2022-12-18T05:21:51;-1.40;99.90
20102;DHT22;10210;52.284;9.892;2022-12-18T05:24:17;-1.40;99.90
20102;DHT22;10210;52.284;9.892;2022-12-18T05:26:43;-1.40;99.90
20102;DHT22;10210;52.284;9.892;2022-12-18T05:29:09;-1.40;99.90
20102;DHT22;10210;52.284;9.892;2022-12-18T05:31:37;-1.50;99.90
20102;DHT22;10210;52.284;9.892;2022-12-18T05:34:04;-1.50;99.90
20102;DHT22;10210;52.284;9.892;2022-12-18T05:36:30;-1.50;99.90
20102;DHT22;10210;52.284;9.892;2022-12-18T05:38:56;-1.50;99.90
20102;DHT22;10210;52.284;9.892;2022-12-18T05:41:21;-1.50;99.90
20102;DHT22;10210;52.284;9.892;2022-12-18T05:43:47;-1.60;99.90
20102;DHT22;10210;52.284;9.892;2022-12-18T05:46:16;-1.60;99.90
20102;DHT22;10210;52.284;9.892;2022-12-18T05:48:44;-1.60;99.90
20102;DHT22;10210;52.284;9.892;2022-12-18T05:51:13;-1.60;99.90
20102;DHT22;10210;52.284;9.892;2022-12-18T05:53:41;-1.60;99.90
20102;DHT22;10210;52.284;9.892;2022-12-18T05:56:11;-1.70;99.90
20102;DHT22;10210;52.284;9.892;2022-12-18T05:58:39;-1.70;99.90
20102;DHT22;10210;52.284;9.892;2022-12-18T06:01:10;-1.70;99.90
20102;DHT22;10210;52.284;9.892;2022-12-18T06:03:38;-1.70;99.90
20102;DHT22;10210;52.284;9.892;2022-12-18T06:06:03;-1.60;99.90
20102;DHT22;10210;52.284;9.892;2022-12-18T06:08:37;-1.60;99.90
20102;DHT22;10210;52.284;9.892;2022-12-18T06:11:03;-1.70;99.90
20102;DHT22;10210;52.284;9.892;2022-12-18T06:13:28;-1.70;99.90
20102;DHT22;10210;52.284;9.892;2022-12-18T06:15:54;-1.70;99.90
20102;DHT22;10210;52.284;9.892;2022-12-18T06:18:20;-1.70;99.90
20102;DHT22;10210;52.284;9.892;2022-12-18T06:20:54;-1.70;99.90
20102;DHT22;10210;52.284;9.892;2022-12-18T06:23:21;-1.70;99.90
20102;DHT22;10210;52.284;9.892;2022-12-18T06:25:47;-1.80;99.90
20102;DHT22;10210;52.284;9.892;2022-12-18T06:28:12;-1.80;99.90
20102;DHT22;10210;52.284;9.892;2022-12-18T06:30:38;-1.80;99.90
20102;DHT22;10210;52.284;9.892;2022-12-18T06:33:04;-1.80;99.90
20102;DHT22;10210;52.284;9.892;2022-12-18T06:35:31;-1.80;99.90
20102;DHT22;10210;52.284;9.892;2022-12-18T06:37:57;-1.70;99.90
20102;DHT22;10210;52.284;9.892;2022-12-18T06:40:22;-1.70;99.90
20102;DHT22;10210;52.284;9.892;2022-12-18T06:42:48;-1.70;99.90
20102;DHT22;10210;52.284;9.892;2022-12-18T06:45:14;-1.70;99.90
20102;DHT22;10210;52.284;9.892;2022-12-18T06:47:40;-1.70;99.90
20102;DHT22;10210;52.284;9.892;2022-12-18T06:50:06;-1.70;99.90
20102;DHT22;10210;52.284;9.892;2022-12-18T06:52:33;-1.70;99.90
20102;DHT22;10210;52.284;9.892;2022-12-18T06:54:59;-1.70;99.90
20102;DHT22;10210;52.284;9.892;2022-12-18T06:57:25;-1.70;99.90
20102;DHT22;10210;52.284;9.892;2022-12-18T06:59:51;-1.70;99.90
20102;DHT22;10210;52.284;9.892;2022-12-18T07:02:17;-1.60;99.90
20102;DHT22;10210;52.284;9.892;2022-12-18T07:04:43;-1.60;99.90
20102;DHT22;10210;52.284;9.892;2022-12-18T07:07:08;-1.60;99.90
20102;DHT22;10210;52.284;9.892;2022-12-18T07:09:34;-1.60;99.90
20102;DHT22;10210;52.284;9.892;2022-12-18T07:12:00;-1.50;99.90
20102;DHT22;10210;52.284;9.892;2022-12-18T07:14:25;-1.50;99.90
20102;DHT22;10210;52.284;9.892;2022-12-18T07:16:51;-1.50;99.90
20102;DHT22;10210;52.284;9.892;2022-12-18T07:19:17;-1.50;99.90
20102;DHT22;10210;52.284;9.892;2022-12-18T07:21:42;-1.40;99.90
20102;DHT22;10210;52.284;9.892;2022-12-18T07:24:08;-1.40;99.90
20102;DHT22;10210;52.284;9.892;2022-12-18T07:26:34;-1.40;99.90
20102;DHT22;10210;52.284;9.892;2022-12-18T07:28:59;-1.40;99.90
20102;DHT22;10210;52.284;9.892;2022-12-18T07:31:26;-1.40;99.90
20102;DHT22;10210;52.284;9.892;2022-12-18T07:33:52;-1.40;99.90
20102;DHT22;10210;52.284;9.892;2022-12-18T07:36:18;-1.40;99.90
20102;DHT22;10210;52.284;9.892;2022-12-18T07:38:47;-1.40;99.90
20102;DHT22;10210;52.284;9.892;2022-12-18T07:41:13;-1.40;99.90
20102;DHT22;10210;52.284;9.892;2022-12-18T07:43:40;-1.40;99.90
20102;DHT22;10210;52.284;9.892;2022-12-18T07:46:07;-1.40;99.90
20102;DHT22;10210;52.284;9.892;2022-12-18T07:48:34;-1.40;99.90
20102;DHT22;10210;52.284;9.892;2022-12-18T07:51:01;-1.40;99.90
20102;DHT22;10210;52.284;9.892;2022-12-18T07:53:28;-1.40;99.90
20102;DHT22;10210;52.284;9.892;2022-12-18T07:56:02;-1.40;99.90
20102;DHT22;10210;52.284;9.892;2022-12-18T07:58:30;-1.40;99.90
20102;DHT22;10210;52.284;9.892;2022-12-18T08:03:30;-1.40;99.90
20102;DHT22;10210;52.284;9.892;2022-12-18T08:06:00;-1.30;99.90
20102;DHT22;10210;52.284;9.892;2022-12-18T08:08:27;-1.30;99.90
20102;DHT22;10210;52.284;9.892;2022-12-18T08:10:53;-1.30;99.90
20102;DHT22;10210;52.284;9.892;2022-12-18T08:13:19;-1.30;99.90
20102;DHT22;10210;52.284;9.892;2022-12-18T08:15:46;-1.30;99.90
20102;DHT22;10210;52.284;9.892;2022-12-18T08:18:11;-1.20;99.90
20102;DHT22;10210;52.284;9.892;2022-12-18T08:20:37;-1.20;99.90
20102;DHT22;10210;52.284;9.892;2022-12-18T08:23:03;-1.20;99.90
20102;DHT22;10210;52.284;9.892;2022-12-18T08:25:29;-1.10;99.90
20102;DHT22;10210;52.284;9.892;2022-12-18T08:27:54;-1.20;99.90
20102;DHT22;10210;52.284;9.892;2022-12-18T08:30:22;-1.20;99.90
20102;DHT22;10210;52.284;9.892;2022-12-18T08:32:51;-1.20;99.90
20102;DHT22;10210;52.284;9.892;2022-12-18T08:35:18;-1.20;99.90
20102;DHT22;10210;52.284;9.892;2022-12-18T08:37:43;-1.20;99.90
20102;DHT22;10210;52.284;9.892;2022-12-18T08:40:09;-1.20;99.90
20102;DHT22;10210;52.284;9.892;2022-12-18T08:42:35;-1.20;99.90
20102;DHT22;10210;52.284;9.892;2022-12-18T08:45:20;-1.20;99.90
20102;DHT22;10210;52.284;9.892;2022-12-18T08:47:45;-1.20;99.90
20102;DHT22;10210;52.284;9.892;2022-12-18T08:50:11;-1.20;99.90
20102;DHT22;10210;52.284;9.892;2022-12-18T08:52:37;-1.20;99.90
20102;DHT22;10210;52.284;9.892;2022-12-18T08:55:03;-1.20;99.90
20102;DHT22;10210;52.284;9.892;2022-12-18T08:57:29;-1.20;99.90
20102;DHT22;10210;52.284;9.892;2022-12-18T08:59:55;-1.20;99.90
20102;DHT22;10210;52.284;9.892;2022-12-18T09:02:20;-1.20;99.90
20102;DHT22;10210;52.284;9.892;2022-12-18T09:04:47;-1.20;99.90
20102;DHT22;10210;52.284;9.892;2022-12-18T09:07:13;-1.20;99.90
20102;DHT22;10210;52.284;9.892;2022-12-18T09:09:39;-1.10;99.90
20102;DHT22;10210;52.284;9.892;2022-12-18T09:12:05;-1.10;99.90
20102;DHT22;10210;52.284;9.892;2022-12-18T09:14:31;-1.10;99.90
20102;DHT22;10210;52.284;9.892;2022-12-18T09:16:56;-1.10;99.90
20102;DHT22;10210;52.284;9.892;2022-12-18T09:19:22;-1.00;99.90
20102;DHT22;10210;52.284;9.892;2022-12-18T09:21:48;-0.90;99.90
20102;DHT22;10210;52.284;9.892;2022-12-18T09:24:14;-0.80;99.90
20102;DHT22;10210;52.284;9.892;2022-12-18T09:26:40;-0.60;99.90
20102;DHT22;10210;52.284;9.892;2022-12-18T09:29:06;-0.40;99.90
20102;DHT22;10210;52.284;9.892;2022-12-18T09:31:35;-0.20;99.90
20102;DHT22;10210;52.284;9.892;2022-12-18T09:34:03;0.10;99.90
20102;DHT22;10210;52.284;9.892;2022-12-18T09:36:28;0.40;99.90
20102;DHT22;10210;52.284;9.892;2022-12-18T09:38:54;0.60;99.90
20102;DHT22;10210;52.284;9.892;2022-12-18T09:41:43;0.80;99.90
20102;DHT22;10210;52.284;9.892;2022-12-18T09:44:43;1.00;99.90
20102;DHT22;10210;52.284;9.892;2022-12-18T09:50:06;1.10;99.90
20102;DHT22;10210;52.284;9.892;2022-12-18T09:52:50;1.20;99.90
20102;DHT22;10210;52.284;9.892;2022-12-18T09:55:45;1.30;99.90
20102;DHT22;10210;52.284;9.892;2022-12-18T09:58:42;1.30;99.90
20102;DHT22;10210;52.284;9.892;2022-12-18T10:01:21;1.40;99.90
20102;DHT22;10210;52.284;9.892;2022-12-18T10:03:48;1.30;99.90
20102;DHT22;10210;52.284;9.892;2022-12-18T10:14:34;1.30;99.90
20102;DHT22;10210;52.284;9.892;2022-12-18T10:17:18;1.30;99.90
20102;DHT22;10210;52.284;9.892;2022-12-18T10:19:56;1.20;99.90
20102;DHT22;10210;52.284;9.892;2022-12-18T10:25:26;1.20;99.90
20102;DHT22;10210;52.284;9.892;2022-12-18T10:28:09;1.10;99.90
20102;DHT22;10210;52.284;9.892;2022-12-18T10:30:39;1.00;99.90
20102;DHT22;10210;52.284;9.892;2022-12-18T10:33:16;1.10;99.90
20102;DHT22;10210;52.284;9.892;2022-12-18T10:35:45;1.10;99.90
20102;DHT22;10210;52.284;9.892;2022-12-18T10:43:33;1.20;99.90
20102;DHT22;10210;52.284;9.892;2022-12-18T10:48:40;1.20;99.90
20102;DHT22;10210;52.284;9.892;2022-12-18T10:54:14;1.40;99.90
20102;DHT22;10210;52.284;9.892;2022-12-18T10:56:42;1.40;99.90
20102;DHT22;10210;52.284;9.892;2022-12-18T10:59:10;1.50;99.90
20102;DHT22;10210;52.284;9.892;2022-12-18T11:01:50;1.50;99.90
20102;DHT22;10210;52.284;9.892;2022-12-18T11:04:27;1.60;99.90
20102;DHT22;10210;52.284;9.892;2022-12-18T11:07:07;1.60;99.90
20102;DHT22;10210;52.284;9.892;2022-12-18T11:09:39;1.70;99.90
20102;DHT22;10210;52.284;9.892;2022-12-18T11:12:18;1.70;99.90
20102;DHT22;10210;52.284;9.892;2022-12-18T11:14:56;1.70;99.90
20102;DHT22;10210;52.284;9.892;2022-12-18T11:17:35;1.80;99.90
20102;DHT22;10210;52.284;9.892;2022-12-18T11:22:59;1.80;99.90
20102;DHT22;10210;52.284;9.892;2022-12-18T11:25:30;1.90;99.90
20102;DHT22;10210;52.284;9.892;2022-12-18T11:28:04;1.90;99.90
20102;DHT22;10210;52.284;9.892;2022-12-18T11:30:37;1.90;99.90
20102;DHT22;10210;52.284;9.892;2022-12-18T11:33:10;2.00;99.90
20102;DHT22;10210;52.284;9.892;2022-12-18T11:35:49;2.00;99.90
20102;DHT22;10210;52.284;9.892;2022-12-18T11:38:28;2.10;99.90
20102;DHT22;10210;52.284;9.892;2022-12-18T11:41:30;2.10;99.90
20102;DHT22;10210;52.284;9.892;2022-12-18T11:47:49;2.20;99.90
20102;DHT22;10210;52.284;9.892;2022-12-18T11:50:32;2.20;99.90
20102;DHT22;10210;52.284;9.892;2022-12-18T11:53:01;2.30;99.90
20102;DHT22;10210;52.284;9.892;2022-12-18T11:55:39;2.30;99.90
20102;DHT22;10210;52.284;9.892;2022-12-18T11:58:32;2.30;99.90
20102;DHT22;10210;52.284;9.892;2022-12-18T12:01:18;2.30;99.90
20102;DHT22;10210;52.284;9.892;2022-12-18T12:04:03;2.40;99.90
20102;DHT22;10210;52.284;9.892;2022-12-18T12:07:20;2.40;99.90
20102;DHT22;10210;52.284;9.892;2022-12-18T12:10:25;2.40;99.90
20102;DHT22;10210;52.284;9.892;2022-12-18T12:16:15;2.50;99.90
20102;DHT22;10210;52.284;9.892;2022-12-18T12:19:15;2.50;99.90
20102;DHT22;10210;52.284;9.892;2022-12-18T12:22:02;2.40;99.90
20102;DHT22;10210;52.284;9.892;2022-12-18T12:24:52;2.40;99.90
20102;DHT22;10210;52.284;9.892;2022-12-18T12:27:48;2.40;99.90
20102;DHT22;10210;52.284;9.892;2022-12-18T12:31:22;2.30;99.90
20102;DHT22;10210;52.284;9.892;2022-12-18T12:33:50;2.30;99.90
20102;DHT22;10210;52.284;9.892;2022-12-18T12:36:36;2.20;99.90
20102;DHT22;10210;52.284;9.892;2022-12-18T12:39:22;2.20;99.90
20102;DHT22;10210;52.284;9.892;2022-12-18T12:41:57;2.10;99.90
20102;DHT22;10210;52.284;9.892;2022-12-18T12:44:50;2.10;99.90
20102;DHT22;10210;52.284;9.892;2022-12-18T12:47:40;2.10;99.90
20102;DHT22;10210;52.284;9.892;2022-12-18T12:50:15;2.00;99.90
20102;DHT22;10210;52.284;9.892;2022-12-18T12:52:46;2.00;99.90
20102;DHT22;10210;52.284;9.892;2022-12-18T12:55:25;2.00;99.90
20102;DHT22;10210;52.284;9.892;2022-12-18T13:00:19;1.90;99.90
20102;DHT22;10210;52.284;9.892;2022-12-18T13:03:30;1.80;99.90
20102;DHT22;10210;52.284;9.892;2022-12-18T13:06:09;1.80;99.90
20102;DHT22;10210;52.284;9.892;2022-12-18T13:08:56;1.70;99.90
20102;DHT22;10210;52.284;9.892;2022-12-18T13:11:37;1.70;99.90
20102;DHT22;10210;52.284;9.892;2022-12-18T13:14:34;1.70;99.90
20102;DHT22;10210;52.284;9.892;2022-12-18T13:19:51;1.60;99.90
20102;DHT22;10210;52.284;9.892;2022-12-18T13:22:48;1.50;99.90
20102;DHT22;10210;52.284;9.892;2022-12-18T13:28:09;1.50;99.90
20102;DHT22;10210;52.284;9.892;2022-12-18T13:30:56;1.50;99.90
20102;DHT22;10210;52.284;9.892;2022-12-18T13:36:25;1.40;99.90
20102;DHT22;10210;52.284;9.892;2022-12-18T13:39:31;1.40;99.90
20102;DHT22;10210;52.284;9.892;2022-12-18T13:44:38;1.20;99.90
20102;DHT22;10210;52.284;9.892;2022-12-18T13:47:31;1.20;99.90
20102;DHT22;10210;52.284;9.892;2022-12-18T13:49:59;1.20;99.90
20102;DHT22;10210;52.284;9.892;2022-12-18T13:52:33;1.20;99.90
20102;DHT22;10210;52.284;9.892;2022-12-18T13:55:05;1.20;99.90
20102;DHT22;10210;52.284;9.892;2022-12-18T13:57:39;1.10;99.90
20102;DHT22;10210;52.284;9.892;2022-12-18T14:00:29;1.10;99.90
20102;DHT22;10210;52.284;9.892;2022-12-18T14:02:58;1.10;99.90
20102;DHT22;10210;52.284;9.892;2022-12-18T14:05:26;1.00;99.90
20102;DHT22;10210;52.284;9.892;2022-12-18T14:08:01;1.00;99.90
20102;DHT22;10210;52.284;9.892;2022-12-18T14:10:30;1.00;99.90
20102;DHT22;10210;52.284;9.892;2022-12-18T14:13:06;0.90;99.90
20102;DHT22;10210;52.284;9.892;2022-12-18T14:15:41;0.90;99.90
20102;DHT22;10210;52.284;9.892;2022-12-18T14:21:02;0.90;99.90
20102;DHT22;10210;52.284;9.892;2022-12-18T14:23:33;0.80;99.90
20102;DHT22;10210;52.284;9.892;2022-12-18T14:26:24;0.80;99.90
20102;DHT22;10210;52.284;9.892;2022-12-18T14:28:56;0.80;99.90
20102;DHT22;10210;52.284;9.892;2022-12-18T14:31:28;0.70;99.90
20102;DHT22;10210;52.284;9.892;2022-12-18T14:33:56;0.70;99.90
20102;DHT22;10210;52.284;9.892;2022-12-18T14:36:27;0.70;99.90
20102;DHT22;10210;52.284;9.892;2022-12-18T14:38:58;0.70;99.90
20102;DHT22;10210;52.284;9.892;2022-12-18T14:41:25;0.70;99.90
20102;DHT22;10210;52.284;9.892;2022-12-18T14:43:53;0.60;99.90
20102;DHT22;10210;52.284;9.892;2022-12-18T14:49:05;0.60;99.90
20102;DHT22;10210;52.284;9.892;2022-12-18T14:51:54;0.60;99.90
20102;DHT22;10210;52.284;9.892;2022-12-18T14:54:23;0.60;99.90
20102;DHT22;10210;52.284;9.892;2022-12-18T14:57:22;0.60;99.90
20102;DHT22;10210;52.284;9.892;2022-12-18T14:59:50;0.50;99.90
20102;DHT22;10210;52.284;9.892;2022-12-18T15:02:27;0.50;99.90
20102;DHT22;10210;52.284;9.892;2022-12-18T15:07:46;0.50;99.90
20102;DHT22;10210;52.284;9.892;2022-12-18T15:10:27;0.50;99.90
20102;DHT22;10210;52.284;9.892;2022-12-18T15:20:42;0.30;99.90
20102;DHT22;10210;52.284;9.892;2022-12-18T15:23:49;0.30;99.90
20102;DHT22;10210;52.284;9.892;2022-12-18T15:26:18;0.30;99.90
20102;DHT22;10210;52.284;9.892;2022-12-18T15:28:51;0.30;99.90
20102;DHT22;10210;52.284;9.892;2022-12-18T15:31:33;0.30;99.90
20102;DHT22;10210;52.284;9.892;2022-12-18T15:34:18;0.30;99.90
20102;DHT22;10210;52.284;9.892;2022-12-18T15:36:46;0.30;99.90
20102;DHT22;10210;52.284;9.892;2022-12-18T15:39:12;0.30;99.90
20102;DHT22;10210;52.284;9.892;2022-12-18T15:41:38;0.30;99.90
20102;DHT22;10210;52.284;9.892;2022-12-18T15:44:24;0.30;99.90
20102;DHT22;10210;52.284;9.892;2022-12-18T15:46:50;0.30;99.90
20102;DHT22;10210;52.284;9.892;2022-12-18T15:49:16;0.30;99.90
20102;DHT22;10210;52.284;9.892;2022-12-18T15:51:42;0.30;99.90
20102;DHT22;10210;52.284;9.892;2022-12-18T15:54:11;0.30;99.90
20102;DHT22;10210;52.284;9.892;2022-12-18T15:56:40;0.30;99.90
20102;DHT22;10210;52.284;9.892;2022-12-18T15:59:25;0.30;99.90
20102;DHT22;10210;52.284;9.892;2022-12-18T16:01:51;0.30;99.90
20102;DHT22;10210;52.284;9.892;2022-12-18T16:04:22;0.30;99.90
20102;DHT22;10210;52.284;9.892;2022-12-18T16:06:49;0.30;99.90
20102;DHT22;10210;52.284;9.892;2022-12-18T16:09:16;0.30;99.90
20102;DHT22;10210;52.284;9.892;2022-12-18T16:11:43;0.30;99.90
20102;DHT22;10210;52.284;9.892;2022-12-18T16:16:44;0.30;99.90
20102;DHT22;10210;52.284;9.892;2022-12-18T16:19:10;0.20;99.90
20102;DHT22;10210;52.284;9.892;2022-12-18T16:21:36;0.30;99.90
20102;DHT22;10210;52.284;9.892;2022-12-18T16:24:02;0.20;99.90
20102;DHT22;10210;52.284;9.892;2022-12-18T16:26:28;0.30;99.90
20102;DHT22;10210;52.284;9.892;2022-12-18T16:28:53;0.30;99.90
20102;DHT22;10210;52.284;9.892;2022-12-18T16:31:19;0.30;99.90
20102;DHT22;10210;52.284;9.892;2022-12-18T16:33:46;0.30;99.90
20102;DHT22;10210;52.284;9.892;2022-12-18T16:36:12;0.30;99.90
20102;DHT22;10210;52.284;9.892;2022-12-18T16:38:37;0.30;99.90
20102;DHT22;10210;52.284;9.892;2022-12-18T16:41:18;0.30;99.90
20102;DHT22;10210;52.284;9.892;2022-12-18T16:43:56;0.30;99.90
20102;DHT22;10210;52.284;9.892;2022-12-18T16:46:22;0.40;99.90
20102;DHT22;10210;52.284;9.892;2022-12-18T16:48:48;0.30;99.90
20102;DHT22;10210;52.284;9.892;2022-12-18T16:51:14;0.30;99.90
20102;DHT22;10210;52.284;9.892;2022-12-18T16:53:40;0.40;99.90
20102;DHT22;10210;52.284;9.892;2022-12-18T16:56:06;0.40;99.90
20102;DHT22;10210;52.284;9.892;2022-12-18T16:58:32;0.30;99.90
20102;DHT22;10210;52.284;9.892;2022-12-18T17:00:58;0.30;99.90
20102;DHT22;10210;52.284;9.892;2022-12-18T17:03:24;0.30;99.90
20102;DHT22;10210;52.284;9.892;2022-12-18T17:05:50;0.30;99.90
20102;DHT22;10210;52.284;9.892;2022-12-18T17:08:16;0.30;99.90
20102;DHT22;10210;52.284;9.892;2022-12-18T17:10:42;0.30;99.90
20102;DHT22;10210;52.284;9.892;2022-12-18T17:13:07;0.30;99.90
20102;DHT22;10210;52.284;9.892;2022-12-18T17:15:36;0.30;99.90
20102;DHT22;10210;52.284;9.892;2022-12-18T17:18:02;0.30;99.90
20102;DHT22;10210;52.284;9.892;2022-12-18T17:20:29;0.30;99.90
20102;DHT22;10210;52.284;9.892;2022-12-18T17:22:55;0.30;99.90
20102;DHT22;10210;52.284;9.892;2022-12-18T17:25:21;0.30;99.90
20102;DHT22;10210;52.284;9.892;2022-12-18T17:27:46;0.30;99.90